createdAt,value
2022-09-27T00:01:11.932Z,12.30
2022-09-27T00:03:40.266Z,12.30
2022-09-27T00:06:09.048Z,12.30
2022-09-27T00:08:39.213Z,12.30
2022-09-27T00:11:10.347Z,12.30
2022-09-27T00:13:37.516Z,12.30
2022-09-27T00:16:05.501Z,12.50
2022-09-27T00:18:33.559Z,12.40
2022-09-27T00:21:13.140Z,12.40
2022-09-27T00:23:41.055Z,12.20
2022-09-27T00:26:13.397Z,12.30
2022-09-27T00:28:43.392Z,12.20
2022-09-27T00:31:21.040Z,12.20
2022-09-27T00:33:50.243Z,12.10
2022-09-27T00:36:20.951Z,12.10
2022-09-27T00:38:48.778Z,12.00
2022-09-27T00:41:22.693Z,12.10
2022-09-27T00:43:53.860Z,12.10
2022-09-27T00:46:35.514Z,12.10
2022-09-27T00:49:27.880Z,12.10
2022-09-27T00:52:42.310Z,12.20
2022-09-27T00:55:20.552Z,12.20
2022-09-27T00:57:48.580Z,12.10
2022-09-27T01:00:16.380Z,12.10
2022-09-27T01:02:50.304Z,12.20
2022-09-27T01:05:21.156Z,12.10
2022-09-27T01:07:48.883Z,12.10
2022-09-27T01:10:21.505Z,12.20
2022-09-27T01:13:13.250Z,12.20
2022-09-27T01:15:44.855Z,12.30
2022-09-27T01:18:24.826Z,12.40
2022-09-27T01:21:22.911Z,12.40
2022-09-27T01:24:04.797Z,12.30
2022-09-27T01:26:41.098Z,12.30
2022-09-27T01:29:19.811Z,12.20
2022-09-27T01:32:02.024Z,12.10
2022-09-27T01:34:42.330Z,12.10
2022-09-27T01:37:51.363Z,12.10
2022-09-27T01:40:33.858Z,12.00
2022-09-27T01:43:14.820Z,12.00
2022-09-27T01:46:10.328Z,12.00
2022-09-27T01:48:44.742Z,12.00
2022-09-27T01:51:20.804Z,12.00
2022-09-27T01:53:53.318Z,12.00
2022-09-27T01:56:32.044Z,12.00
2022-09-27T01:59:13.393Z,11.90
2022-09-27T02:01:44.387Z,11.80
2022-09-27T02:04:17.619Z,11.90
2022-09-27T02:06:49.197Z,11.90
2022-09-27T02:09:33.761Z,11.90
2022-09-27T02:12:09.053Z,11.80
2022-09-27T02:14:47.547Z,11.80
2022-09-27T02:17:42.273Z,11.80
2022-09-27T02:20:31.715Z,11.80
2022-09-27T02:23:11.142Z,11.90
2022-09-27T02:25:46.931Z,11.90
2022-09-27T02:28:34.370Z,11.90
2022-09-27T02:31:04.394Z,11.90
2022-09-27T02:33:38.791Z,12.00
2022-09-27T02:36:06.472Z,12.00
2022-09-27T02:38:36.454Z,12.00
2022-09-27T02:41:03.915Z,12.00
2022-09-27T02:43:37.972Z,12.00
2022-09-27T02:46:21.473Z,12.00
2022-09-27T02:49:03.381Z,12.00
2022-09-27T02:52:08.950Z,12.00
2022-09-27T02:54:44.365Z,12.00
2022-09-27T02:57:33.930Z,12.00
2022-09-27T03:00:12.188Z,12.10
2022-09-27T03:03:09.286Z,12.20
2022-09-27T03:06:04.709Z,12.30
2022-09-27T03:08:34.588Z,12.50
2022-09-27T03:11:02.232Z,12.50
2022-09-27T03:13:30.563Z,12.50
2022-09-27T03:16:01.447Z,12.50
2022-09-27T03:18:29.472Z,12.50
2022-09-27T03:20:59.131Z,12.60
2022-09-27T03:23:27.333Z,12.60
2022-09-27T03:25:55.327Z,12.60
2022-09-27T03:28:22.611Z,12.60
2022-09-27T03:30:53.103Z,12.60
2022-09-27T03:33:20.293Z,12.50
2022-09-27T03:35:48.040Z,12.40
2022-09-27T03:38:15.311Z,12.30
2022-09-27T03:40:45.381Z,12.20
2022-09-27T03:43:12.641Z,12.20
2022-09-27T03:45:40.124Z,12.30
2022-09-27T03:48:07.301Z,12.30
2022-09-27T03:50:34.652Z,12.30
2022-09-27T03:53:02.041Z,12.30
2022-09-27T03:55:29.277Z,12.30
2022-09-27T03:57:56.537Z,12.30
2022-09-27T04:00:26.292Z,12.40
2022-09-27T04:02:55.822Z,12.50
2022-09-27T04:05:24.331Z,12.60
2022-09-27T04:07:51.571Z,12.70
2022-09-27T04:10:21.624Z,12.70
2022-09-27T04:12:49.313Z,12.70
2022-09-27T04:15:18.906Z,12.70
2022-09-27T04:17:46.124Z,12.80
2022-09-27T04:20:13.399Z,12.80
2022-09-27T04:22:46.789Z,12.80
2022-09-27T04:25:14.085Z,12.80
2022-09-27T04:27:45.924Z,12.70
2022-09-27T04:30:14.283Z,12.60
2022-09-27T04:32:45.222Z,12.50
2022-09-27T04:35:31.832Z,12.50
2022-09-27T04:38:03.201Z,12.40
2022-09-27T04:40:33.554Z,12.40
2022-09-27T04:43:01.234Z,12.30
2022-09-27T04:45:30.963Z,12.30
2022-09-27T04:48:00.857Z,12.30
2022-09-27T04:50:30.358Z,12.30
2022-09-27T04:53:04.776Z,12.30
2022-09-27T04:55:34.681Z,12.30
2022-09-27T04:58:05.174Z,12.40
2022-09-27T05:00:32.915Z,12.40
2022-09-27T05:03:00.714Z,12.30
2022-09-27T05:05:28.145Z,12.20
2022-09-27T05:07:55.799Z,12.20
2022-09-27T05:10:23.466Z,12.20
2022-09-27T05:12:50.717Z,12.30
2022-09-27T05:15:17.943Z,12.30
2022-09-27T05:17:45.619Z,12.30
2022-09-27T05:20:14.113Z,12.40
2022-09-27T05:22:43.844Z,12.50
2022-09-27T05:25:12.088Z,12.50
2022-09-27T05:27:39.807Z,12.60
2022-09-27T05:30:08.095Z,12.60
2022-09-27T05:32:43.798Z,12.60
2022-09-27T05:35:13.415Z,12.60
2022-09-27T05:37:41.008Z,12.60
2022-09-27T05:40:29.175Z,12.60
2022-09-27T05:42:57.327Z,12.50
2022-09-27T05:45:26.038Z,12.50
2022-09-27T05:47:57.333Z,12.50
2022-09-27T05:50:26.639Z,12.50
2022-09-27T05:52:54.856Z,12.60
2022-09-27T05:55:22.552Z,12.60
2022-09-27T05:58:03.817Z,12.60
2022-09-27T06:00:32.460Z,12.60
2022-09-27T06:03:02.129Z,12.60
2022-09-27T06:05:31.312Z,12.50
2022-09-27T06:08:08.123Z,12.50
2022-09-27T06:10:35.794Z,12.40
2022-09-27T06:13:15.277Z,12.40
2022-09-27T06:15:44.804Z,12.40
2022-09-27T06:18:16.235Z,12.40
2022-09-27T06:20:45.837Z,12.40
2022-09-27T06:23:22.422Z,12.40
2022-09-27T06:25:51.845Z,12.30
2022-09-27T06:28:25.088Z,12.40
2022-09-27T06:30:52.908Z,12.50
2022-09-27T06:33:21.176Z,12.60
2022-09-27T06:35:51.504Z,12.70
2022-09-27T06:38:21.816Z,12.80
2022-09-27T06:40:51.847Z,12.70
2022-09-27T06:43:24.699Z,12.80
2022-09-27T06:45:55.075Z,12.70
2022-09-27T06:48:22.465Z,12.70
2022-09-27T06:50:52.486Z,12.70
2022-09-27T06:53:19.703Z,12.80
2022-09-27T06:55:46.913Z,12.90
2022-09-27T06:58:32.631Z,12.80
2022-09-27T07:00:59.911Z,12.80
2022-09-27T07:03:38.919Z,12.60
2022-09-27T07:06:23.773Z,12.60
2022-09-27T07:08:53.165Z,12.50
2022-09-27T07:11:28.983Z,12.50
2022-09-27T07:13:58.465Z,12.60
2022-09-27T07:16:31.443Z,12.60
2022-09-27T07:18:58.679Z,12.70
2022-09-27T07:21:26.009Z,12.60
2022-09-27T07:23:53.961Z,12.70
2022-09-27T07:26:24.064Z,12.60
2022-09-27T07:28:54.307Z,12.70
2022-09-27T07:31:24.325Z,12.80
2022-09-27T07:33:52.828Z,12.80
2022-09-27T07:36:20.498Z,12.80
2022-09-27T07:38:50.224Z,12.90
2022-09-27T07:41:17.611Z,12.80
2022-09-27T07:43:45.209Z,12.90
2022-09-27T07:46:15.046Z,12.90
2022-09-27T07:48:42.524Z,13.00
2022-09-27T07:51:10.939Z,13.10
2022-09-27T07:53:38.658Z,13.10
2022-09-27T07:56:08.104Z,13.30
2022-09-27T07:58:35.311Z,13.50
2022-09-27T08:01:03.257Z,13.50
2022-09-27T08:03:31.210Z,13.30
2022-09-27T08:06:03.583Z,13.20
2022-09-27T08:08:31.353Z,13.00
2022-09-27T08:11:02.027Z,12.80
2022-09-27T08:13:31.808Z,12.80
2022-09-27T08:16:02.613Z,12.70
2022-09-27T08:18:29.814Z,12.50
2022-09-27T08:21:02.806Z,12.50
2022-09-27T08:23:30.678Z,12.60
2022-09-27T08:25:59.270Z,12.60
2022-09-27T08:28:29.790Z,12.60
2022-09-27T08:31:00.974Z,12.60
2022-09-27T08:33:32.833Z,12.60
2022-09-27T08:36:03.409Z,12.70
2022-09-27T08:38:30.968Z,12.80
2022-09-27T08:41:07.322Z,12.80
2022-09-27T08:43:55.219Z,12.80
2022-09-27T08:46:28.463Z,12.90
2022-09-27T08:49:05.973Z,12.80
2022-09-27T08:51:35.246Z,12.80
2022-09-27T08:54:26.339Z,12.70
2022-09-27T08:56:54.988Z,12.70
2022-09-27T08:59:32.878Z,12.70
2022-09-27T09:02:00.421Z,12.80
2022-09-27T09:04:35.840Z,12.80
2022-09-27T09:07:28.810Z,12.80
2022-09-27T09:10:15.251Z,12.80
2022-09-27T09:13:01.936Z,12.80
2022-09-27T09:15:57.495Z,12.70
2022-09-27T09:18:27.665Z,12.60
2022-09-27T09:20:58.658Z,12.60
2022-09-27T09:23:42.917Z,12.50
2022-09-27T09:26:38.086Z,12.70
2022-09-27T09:29:40.126Z,12.80
2022-09-27T09:32:31.476Z,12.80
2022-09-27T09:35:03.760Z,12.90
2022-09-27T09:37:40.212Z,12.80
2022-09-27T09:40:39.068Z,12.70
2022-09-27T09:43:25.723Z,12.70
2022-09-27T09:46:02.324Z,12.70
2022-09-27T09:48:50.081Z,12.60
2022-09-27T09:51:22.644Z,12.60
2022-09-27T09:54:00.893Z,12.60
2022-09-27T09:56:36.250Z,12.70
2022-09-27T09:59:12.711Z,12.90
2022-09-27T10:01:49.685Z,13.00
2022-09-27T10:04:28.116Z,13.10
2022-09-27T10:06:58.509Z,13.20
2022-09-27T10:09:28.328Z,13.40
2022-09-27T10:11:57.299Z,13.50
2022-09-27T10:14:27.148Z,13.80
2022-09-27T10:17:06.316Z,14.10
2022-09-27T10:19:39.517Z,14.40
2022-09-27T10:22:17.167Z,14.60
2022-09-27T10:25:17.962Z,14.70
2022-09-27T10:27:46.878Z,14.60
2022-09-27T10:30:25.553Z,14.30
2022-09-27T10:33:05.621Z,14.20
2022-09-27T10:35:40.426Z,14.20
2022-09-27T10:38:24.996Z,14.30
2022-09-27T10:40:58.994Z,14.40
2022-09-27T10:43:30.718Z,14.60
2022-09-27T10:46:03.951Z,14.70
2022-09-27T10:48:31.636Z,14.90
2022-09-27T11:13:18.798Z,16.70
2022-09-27T11:16:09.110Z,18.70
2022-09-27T11:19:15.243Z,18.80
2022-09-27T11:21:59.541Z,18.70
2022-09-27T11:24:34.939Z,18.10
2022-09-27T11:27:26.209Z,17.30
2022-09-27T11:30:05.892Z,16.80
2022-09-27T11:33:01.593Z,16.20
2022-09-27T11:36:05.710Z,15.70
2022-09-27T11:39:02.530Z,15.30
2022-09-27T11:42:02.751Z,14.80
2022-09-27T11:45:07.860Z,14.50
2022-09-27T11:47:51.067Z,14.20
2022-09-27T11:50:46.147Z,13.80
2022-09-27T11:54:10.755Z,13.70
2022-09-27T11:56:57.292Z,13.70
2022-09-27T11:59:52.066Z,13.30
2022-09-27T12:02:58.848Z,13.30
2022-09-27T12:05:57.672Z,13.60
2022-09-27T12:08:28.881Z,13.90
2022-09-27T12:11:09.090Z,14.10
2022-09-27T12:13:56.054Z,14.30
2022-09-27T12:16:25.480Z,14.40
2022-09-27T12:18:53.774Z,14.50
2022-09-27T12:21:24.459Z,14.70
2022-09-27T12:24:00.357Z,15.60
2022-09-27T12:26:41.124Z,16.40
2022-09-27T12:29:18.165Z,16.80
2022-09-27T12:32:11.383Z,17.00
2022-09-27T12:35:17.330Z,17.30
2022-09-27T12:38:00.014Z,17.30
2022-09-27T12:40:33.474Z,17.30
2022-09-27T12:43:09.733Z,17.20
2022-09-27T12:46:05.182Z,17.20
2022-09-27T12:48:48.244Z,16.70
2022-09-27T12:51:19.880Z,16.30
2022-09-27T12:54:09.155Z,16.10
2022-09-27T12:56:43.923Z,15.80
2022-09-27T12:59:22.595Z,15.80
2022-09-27T13:02:26.022Z,16.40
2022-09-27T13:05:21.075Z,17.60
2022-09-27T13:08:27.281Z,18.40
2022-09-27T13:11:21.968Z,18.80
2022-09-27T13:13:59.902Z,19.10
2022-09-27T13:16:28.425Z,18.80
2022-09-27T13:18:56.228Z,18.50
2022-09-27T13:21:56.318Z,18.00
2022-09-27T13:24:52.536Z,17.30
2022-09-27T13:27:23.409Z,16.90
2022-09-27T13:29:51.392Z,16.60
2022-09-27T13:32:23.750Z,15.90
2022-09-27T13:35:10.225Z,15.60
2022-09-27T13:38:02.674Z,15.40
2022-09-27T13:40:35.952Z,15.00
2022-09-27T13:43:17.602Z,14.70
2022-09-27T13:46:09.476Z,14.70
2022-09-27T13:49:18.279Z,14.70
2022-09-27T13:52:03.620Z,15.00
2022-09-27T13:54:40.248Z,15.20
2022-09-27T13:57:46.216Z,15.40
2022-09-27T14:00:18.356Z,15.60
2022-09-27T14:03:16.873Z,15.60
2022-09-27T14:05:52.163Z,15.40
2022-09-27T14:08:46.006Z,15.40
2022-09-27T14:11:17.938Z,15.50
2022-09-27T14:13:50.737Z,15.70
2022-09-27T14:16:20.848Z,15.50
2022-09-27T14:18:59.700Z,15.30
2022-09-27T14:21:40.382Z,15.20
2022-09-27T14:24:28.682Z,15.00
2022-09-27T14:27:22.715Z,14.90
2022-09-27T14:29:53.979Z,14.80
2022-09-27T14:32:24.356Z,14.80
2022-09-27T14:35:35.149Z,14.70
2022-09-27T14:38:26.300Z,14.60
2022-09-27T14:40:53.879Z,14.70
2022-09-27T14:43:22.450Z,14.80
2022-09-27T14:45:53.063Z,14.80
2022-09-27T14:48:22.213Z,14.90
2022-09-27T14:51:04.789Z,15.10
2022-09-27T14:54:01.436Z,15.30
2022-09-27T14:56:32.564Z,15.50
2022-09-27T14:59:09.063Z,15.70
2022-09-27T15:01:38.198Z,15.80
2022-09-27T15:04:08.955Z,15.80
2022-09-27T15:06:37.891Z,15.70
2022-09-27T15:09:07.090Z,15.70
2022-09-27T15:11:34.794Z,15.60
2022-09-27T15:14:03.849Z,15.60
2022-09-27T15:16:36.576Z,15.60
2022-09-27T15:19:20.541Z,15.60
2022-09-27T15:21:50.473Z,15.50
2022-09-27T15:24:41.098Z,15.60
2022-09-27T15:27:23.762Z,15.20
2022-09-27T15:29:56.271Z,14.80
2022-09-27T15:32:26.402Z,14.50
2022-09-27T15:34:55.504Z,14.40
2022-09-27T15:37:36.136Z,14.30
2022-09-27T15:40:29.204Z,14.20
2022-09-27T15:43:04.198Z,14.30
2022-09-27T15:45:33.719Z,14.40
2022-09-27T15:48:28.337Z,14.60
2022-09-27T15:50:55.571Z,14.60
2022-09-27T15:53:42.118Z,14.70
2022-09-27T15:56:13.638Z,14.80
2022-09-27T15:58:41.898Z,14.90
2022-09-27T16:01:18.663Z,15.00
2022-09-27T16:03:46.017Z,15.00
2022-09-27T16:06:14.138Z,15.00
2022-09-27T16:08:42.229Z,15.00
2022-09-27T16:11:14.810Z,14.90
2022-09-27T16:13:42.053Z,14.80
2022-09-27T16:16:17.871Z,14.80
2022-09-27T16:18:46.118Z,14.70
2022-09-27T16:21:14.032Z,14.70
2022-09-27T16:23:41.807Z,14.80
2022-09-27T16:26:09.634Z,14.70
2022-09-27T16:28:37.341Z,14.60
2022-09-27T16:31:06.888Z,14.70
2022-09-27T16:33:35.736Z,14.70
2022-09-27T16:36:14.337Z,14.70
2022-09-27T16:38:42.610Z,14.70
2022-09-27T16:41:09.965Z,14.60
2022-09-27T16:43:37.177Z,14.70
2022-09-27T16:46:09.020Z,14.70
2022-09-27T16:48:36.347Z,14.80
2022-09-27T16:51:42.784Z,14.80
2022-09-27T16:54:10.428Z,14.70
2022-09-27T16:56:40.007Z,14.70
2022-09-27T16:59:09.716Z,14.70
2022-09-27T17:01:39.265Z,14.70
2022-09-27T17:04:07.191Z,14.70
2022-09-27T17:06:34.508Z,14.60
2022-09-27T17:09:05.245Z,14.50
2022-09-27T17:11:37.858Z,14.50
2022-09-27T17:14:07.348Z,14.50
2022-09-27T17:16:34.747Z,14.50
2022-09-27T17:19:02.444Z,14.40
2022-09-27T17:21:37.129Z,14.50
2022-09-27T17:24:07.690Z,14.50
2022-09-27T17:26:37.550Z,14.50
2022-09-27T17:29:05.229Z,14.50
2022-09-27T17:31:34.805Z,14.40
2022-09-27T17:34:02.689Z,14.50
2022-09-27T17:36:33.642Z,14.50
2022-09-27T17:39:01.456Z,14.40
2022-09-27T17:41:29.691Z,14.30
2022-09-27T17:43:59.603Z,14.00
2022-09-27T17:46:30.509Z,13.70
2022-09-27T17:49:17.012Z,13.60
2022-09-27T17:51:50.119Z,13.40
2022-09-27T17:54:19.643Z,13.20
2022-09-27T17:56:48.053Z,13.00
2022-09-27T17:59:16.040Z,12.80
2022-09-27T18:01:45.638Z,12.80
2022-09-27T18:04:17.634Z,12.60
2022-09-27T18:06:48.393Z,12.60
2022-09-27T18:09:21.157Z,12.60
2022-09-27T18:11:48.410Z,12.60
2022-09-27T18:14:18.034Z,12.60
2022-09-27T18:16:48.442Z,12.60
2022-09-27T18:19:17.718Z,12.60
2022-09-27T18:21:47.145Z,12.50
2022-09-27T18:24:17.127Z,12.40
2022-09-27T18:26:49.135Z,12.20
2022-09-27T18:29:21.014Z,12.10
2022-09-27T18:31:49.386Z,12.00
2022-09-27T18:34:20.252Z,12.00
2022-09-27T18:36:47.519Z,11.80
2022-09-27T18:39:19.653Z,11.90
2022-09-27T18:41:49.986Z,11.80
2022-09-27T18:44:23.586Z,12.00
2022-09-27T18:46:53.630Z,12.20
2022-09-27T18:49:27.805Z,12.40
2022-09-27T18:51:58.275Z,12.60
2022-09-27T18:54:27.932Z,12.60
2022-09-27T18:56:55.199Z,12.60
2022-09-27T18:59:24.687Z,12.60
2022-09-27T19:01:56.519Z,12.70
2022-09-27T19:04:26.928Z,12.70
2022-09-27T19:06:56.097Z,12.80
2022-09-27T19:09:23.585Z,12.90
2022-09-27T19:11:55.569Z,12.90
2022-09-27T19:14:23.640Z,13.00
2022-09-27T19:16:53.524Z,13.10
2022-09-27T19:19:20.972Z,13.10
2022-09-27T19:21:48.375Z,13.10
2022-09-27T19:24:20.938Z,13.00
2022-09-27T19:26:49.959Z,12.70
2022-09-27T19:29:17.779Z,12.70
2022-09-27T19:31:48.322Z,12.80
2022-09-27T19:34:15.749Z,12.80
2022-09-27T19:36:47.735Z,12.90
2022-09-27T19:39:15.586Z,12.90
2022-09-27T19:41:42.872Z,13.00
2022-09-27T19:44:10.054Z,13.20
2022-09-27T19:46:39.828Z,13.30
2022-09-27T19:49:07.103Z,13.40
2022-09-27T19:51:37.415Z,13.40
2022-09-27T19:54:05.230Z,13.40
2022-09-27T19:56:32.994Z,13.50
2022-09-27T19:59:03.717Z,13.50
2022-09-27T20:01:33.682Z,13.50
2022-09-27T20:04:01.751Z,13.40
2022-09-27T20:06:29.413Z,13.40
2022-09-27T20:08:57.132Z,13.00
2022-09-27T20:11:28.042Z,13.20
2022-09-27T20:13:55.774Z,13.30
2022-09-27T20:16:26.911Z,13.30
2022-09-27T20:18:56.847Z,13.30
2022-09-27T20:21:26.998Z,13.30
2022-09-27T20:23:56.010Z,13.40
2022-09-27T20:26:25.029Z,13.20
2022-09-27T20:28:54.540Z,13.20
2022-09-27T20:31:29.933Z,13.00
2022-09-27T20:34:01.933Z,13.10
2022-09-27T20:36:37.952Z,13.00
2022-09-27T20:39:10.460Z,13.00
2022-09-27T20:41:45.455Z,13.00
2022-09-27T20:44:16.712Z,13.10
2022-09-27T20:46:48.028Z,13.20
2022-09-27T20:49:18.570Z,13.20
2022-09-27T20:51:48.551Z,13.10
2022-09-27T20:54:18.386Z,13.20
2022-09-27T20:56:47.262Z,13.10
2022-09-27T20:59:26.355Z,13.10
2022-09-27T21:01:53.749Z,13.10
2022-09-27T21:04:22.378Z,13.10
2022-09-27T21:06:51.685Z,13.00
2022-09-27T21:09:21.324Z,13.00
2022-09-27T21:11:51.604Z,13.00
2022-09-27T21:14:18.929Z,13.00
2022-09-27T21:16:46.723Z,13.10
2022-09-27T21:19:16.473Z,13.00
2022-09-27T21:21:44.231Z,13.10
2022-09-27T21:24:12.317Z,13.00
2022-09-27T21:26:39.998Z,13.10
2022-09-27T21:29:09.233Z,13.10
2022-09-27T21:31:38.022Z,13.10
2022-09-27T21:34:07.960Z,13.00
2022-09-27T21:36:38.063Z,13.00
2022-09-27T21:39:09.038Z,13.00
2022-09-27T21:41:37.786Z,12.90
2022-09-27T21:44:06.584Z,12.80
2022-09-27T21:46:38.995Z,12.80
2022-09-27T21:49:07.019Z,12.80
2022-09-27T21:51:38.373Z,12.80
2022-09-27T21:54:11.185Z,12.80
2022-09-27T21:56:40.087Z,12.80
2022-09-27T21:59:12.950Z,12.70
2022-09-27T22:01:43.060Z,12.60
2022-09-27T22:04:10.793Z,12.70
2022-09-27T22:06:41.550Z,12.60
2022-09-27T22:09:14.049Z,12.40
2022-09-27T22:11:43.982Z,12.30
2022-09-27T22:14:12.059Z,12.20
2022-09-27T22:16:41.763Z,12.20
2022-09-27T22:19:14.141Z,12.20
2022-09-27T22:21:41.999Z,12.30
2022-09-27T22:24:14.830Z,12.20
2022-09-27T22:26:46.028Z,12.30
2022-09-27T22:29:15.819Z,12.40
2022-09-27T22:31:43.252Z,12.50
2022-09-27T22:34:20.641Z,12.50
2022-09-27T22:36:47.810Z,12.40
2022-09-27T22:39:15.094Z,12.50
2022-09-27T22:41:42.613Z,12.50
2022-09-27T22:44:09.798Z,12.40
2022-09-27T22:46:37.054Z,12.40
2022-09-27T22:49:06.454Z,12.40
2022-09-27T22:51:33.692Z,12.50
2022-09-27T22:54:01.003Z,12.60
2022-09-27T22:56:30.362Z,12.70
2022-09-27T22:59:00.586Z,12.70
2022-09-27T23:01:27.852Z,12.70
2022-09-27T23:03:56.068Z,12.70
2022-09-27T23:06:25.733Z,12.70
2022-09-27T23:08:56.802Z,12.70
2022-09-27T23:11:24.067Z,12.80
2022-09-27T23:13:54.080Z,12.80
2022-09-27T23:16:26.001Z,12.70
2022-09-27T23:18:56.098Z,12.70
2022-09-27T23:21:24.708Z,12.70
2022-09-27T23:23:56.227Z,12.80
2022-09-27T23:26:29.112Z,12.80
2022-09-27T23:29:00.477Z,12.90
2022-09-27T23:31:30.715Z,12.90
2022-09-27T23:34:05.785Z,12.90
2022-09-27T23:36:34.505Z,13.00
2022-09-27T23:39:02.258Z,13.00
2022-09-27T23:41:31.926Z,13.00
2022-09-27T23:44:02.092Z,12.90
2022-09-27T23:46:31.855Z,13.00
2022-09-27T23:49:02.167Z,13.00
2022-09-27T23:51:30.021Z,13.00
2022-09-27T23:53:59.637Z,13.00
2022-09-27T23:56:27.282Z,13.00
2022-09-27T23:58:56.619Z,13.00
